TimeHST,TemperatureF,Dew PointF,Humidity,Sea Level PressureIn,VisibilityMPH,Wind Direction,Wind SpeedMPH,Gust SpeedMPH,PrecipitationIn,Events,Conditions,WindDirDegrees,DateUTC
12:53 AM,75.9,68.0,76,29.96,10.0,East,4.6,-,N/A,,Clear,80,2013-10-11 10:53:00
1:53 AM,75.9,68.0,76,29.94,10.0,ESE,3.5,-,N/A,,Partly Cloudy,120,2013-10-11 11:53:00
2:53 AM,75.9,68.0,76,29.93,10.0,Calm,Calm,-,N/A,,Partly Cloudy,0,2013-10-11 12:53:00
3:53 AM,75.0,66.9,76,29.92,10.0,Calm,Calm,-,N/A,,Scattered Clouds,0,2013-10-11 13:53:00
4:53 AM,75.9,68.0,76,29.93,10.0,ESE,3.5,-,N/A,,Overcast,110,2013-10-11 14:53:00
5:53 AM,75.9,66.9,74,29.95,10.0,East,5.8,-,N/A,,Mostly Cloudy,100,2013-10-11 15:53:00
6:53 AM,75.9,66.9,74,29.96,10.0,ESE,3.5,-,N/A,,Partly Cloudy,120,2013-10-11 16:53:00
7:53 AM,80.1,68.0,67,29.98,10.0,SE,5.8,-,N/A,,Clear,140,2013-10-11 17:53:00
8:53 AM,81.0,66.9,62,29.99,10.0,SSW,6.9,-,N/A,,Clear,200,2013-10-11 18:53:00
9:53 AM,82.0,70.0,67,29.98,10.0,WSW,9.2,-,N/A,,Clear,240,2013-10-11 19:53:00
10:53 AM,82.9,71.1,67,29.99,10.0,SW,9.2,-,N/A,,Clear,230,2013-10-11 20:53:00
11:53 AM,84.0,71.1,65,29.97,10.0,SSW,10.4,-,N/A,,Clear,200,2013-10-11 21:53:00
12:53 PM,82.9,72.0,69,29.96,10.0,West,9.2,-,N/A,,Mostly Cloudy,260,2013-10-11 22:53:00
1:53 PM,84.0,72.0,67,29.94,10.0,WNW,9.2,-,N/A,,Partly Cloudy,300,2013-10-11 23:53:00
2:53 PM,84.9,66.9,55,29.92,10.0,NNW,12.7,-,N/A,,Clear,330,2013-10-12 00:53:00
3:53 PM,86.0,68.0,55,29.92,10.0,NNW,12.7,-,N/A,,Clear,330,2013-10-12 01:53:00
4:53 PM,84.9,68.0,57,29.92,10.0,NW,12.7,-,N/A,,Clear,320,2013-10-12 02:53:00
5:53 PM,82.0,71.1,69,29.95,10.0,NNW,9.2,-,N/A,,Clear,340,2013-10-12 03:53:00
6:53 PM,81.0,71.1,72,29.98,10.0,North,10.4,-,N/A,,Clear,360,2013-10-12 04:53:00
7:53 PM,80.1,72.0,76,29.99,10.0,North,11.5,-,N/A,,Clear,360,2013-10-12 05:53:00
8:53 PM,79.0,73.0,82,30.02,10.0,North,6.9,-,N/A,,Clear,360,2013-10-12 06:53:00
9:53 PM,79.0,72.0,79,30.03,10.0,North,6.9,-,N/A,,Partly Cloudy,350,2013-10-12 07:53:00
10:53 PM,79.0,72.0,79,30.02,10.0,Calm,Calm,-,N/A,,Mostly Cloudy,0,2013-10-12 08:53:00
11:53 PM,78.1,72.0,81,30.01,10.0,Calm,Calm,-,N/A,,Clear,0,2013-10-12 09:53:00